Ogden, Arkansas
Current Conditions -  °F | °C
As of 4:53 AM on Thursday 27 Nov 2014 (Local Time) from KTXK Reporting Station
Clear Clear  
Wind Chill: 33°   Ceiling: Unl
Heat Index: 39°   Visibility: 10mi
Dew Point: 27°   Wind: 9mph
Humidity: 62%   Direction: 300°WNW
Pressure: 30.45"   Gusts: NA
Location:  33.58°N, 94.04°W
Report Text: KTXK 271053Z AUTO 30008KT 10SM CLR 04/M03 A3045 RMK AO2 SLP311 T00391028
Loading
Personal Weather Stations






























Interactive Weather Map New forecast layout! Learn more

10-Day Weather Forecast

Advertisements
Track Severe Weather on mobile